createdAt,value
2022-08-19T00:01:53.449Z,100586.23
2022-08-19T00:04:28.846Z,100579.58
2022-08-19T00:07:01.407Z,100578.11
2022-08-19T00:09:33.463Z,100578.29
2022-08-19T00:12:06.970Z,100581.67
2022-08-19T00:14:39.264Z,100585.44
2022-08-19T00:17:11.727Z,100581.64
2022-08-19T00:19:43.550Z,100587.55
2022-08-19T00:22:15.688Z,100588.27
2022-08-19T00:24:50.830Z,100588.23
2022-08-19T00:27:25.709Z,100592.52
2022-08-19T00:30:01.197Z,100593.74
2022-08-19T00:32:34.097Z,100591.40
2022-08-19T00:35:07.286Z,100587.96
2022-08-19T00:37:44.205Z,100583.81
2022-08-19T00:40:16.737Z,100583.44
2022-08-19T00:42:49.169Z,100580.91
2022-08-19T00:45:24.549Z,100580.54
2022-08-19T00:47:59.765Z,100579.95
2022-08-19T00:50:32.460Z,100582.27
2022-08-19T00:53:06.070Z,100582.44
2022-08-19T00:55:39.654Z,100582.61
2022-08-19T00:58:18.479Z,100586.38
2022-08-19T01:00:51.176Z,100587.24
2022-08-19T01:03:24.149Z,100587.05
2022-08-19T01:05:57.973Z,100586.33
2022-08-19T01:08:30.361Z,100583.97
2022-08-19T01:11:03.133Z,100586.30
2022-08-19T01:13:49.146Z,100586.27
2022-08-19T01:16:27.553Z,100588.95
2022-08-19T01:18:59.434Z,100581.75
2022-08-19T01:21:36.607Z,100581.91
2022-08-19T01:24:09.129Z,100581.19
2022-08-19T01:26:45.788Z,100577.76
2022-08-19T01:29:18.926Z,100577.38
2022-08-19T01:31:54.356Z,100566.98
2022-08-19T01:34:26.363Z,100570.36
2022-08-19T01:36:58.224Z,100570.02
2022-08-19T01:39:30.368Z,100562.10
2022-08-19T01:42:07.306Z,100563.70
2022-08-19T01:44:39.682Z,100565.13
2022-08-19T01:47:12.135Z,100562.79
2022-08-19T01:49:44.039Z,100558.12
2022-08-19T01:52:15.961Z,100562.24
2022-08-19T01:54:47.737Z,100562.59
2022-08-19T01:57:19.975Z,100558.97
2022-08-19T01:59:52.183Z,100553.23
2022-08-19T02:02:24.111Z,100554.11
2022-08-19T02:04:55.992Z,100545.67
2022-08-19T02:09:36.653Z,100542.64
2022-08-19T02:12:09.907Z,100534.18
2022-08-19T02:14:42.126Z,100532.91
2022-08-19T02:17:16.550Z,100528.06
2022-08-19T02:19:50.093Z,100525.55
2022-08-19T02:22:22.093Z,100525.72
2022-08-19T02:24:54.157Z,100526.98
2022-08-19T02:27:27.524Z,100522.66
2022-08-19T02:29:59.355Z,100520.30
2022-08-19T02:32:32.046Z,100519.95
2022-08-19T02:35:12.148Z,100519.04
2022-08-19T02:38:03.489Z,100517.05
2022-08-19T02:40:36.287Z,100518.28
2022-08-19T02:43:09.572Z,100517.20
2022-08-19T02:45:42.492Z,100526.16
2022-08-19T02:48:21.807Z,100531.87
2022-08-19T02:50:56.132Z,100530.06
2022-08-19T02:53:30.569Z,100528.43
2022-08-19T02:56:02.413Z,100533.95
2022-08-19T02:58:34.304Z,100530.54
2022-08-19T03:01:06.880Z,100526.91
2022-08-19T03:03:39.119Z,100521.34
2022-08-19T03:06:14.650Z,100519.89
2022-08-19T03:08:48.340Z,100518.77
2022-08-19T03:11:22.539Z,100519.85
2022-08-19T03:13:55.444Z,100518.39
2022-08-19T03:16:33.540Z,100520.52
2022-08-19T03:19:05.719Z,100523.02
2022-08-19T03:21:37.657Z,100524.59
2022-08-19T03:24:11.180Z,100521.71
2022-08-19T03:26:44.940Z,100521.86
2022-08-19T03:29:18.243Z,100520.96
2022-08-19T03:32:05.076Z,100525.24
2022-08-19T03:34:39.023Z,100526.30
2022-08-19T03:37:15.932Z,100529.36
2022-08-19T03:39:47.903Z,100528.64
2022-08-19T03:42:38.297Z,100527.74
2022-08-19T03:45:12.596Z,100524.52
2022-08-19T03:47:44.620Z,100523.27
2022-08-19T03:50:16.509Z,100522.77
2022-08-19T03:52:52.658Z,100518.10
2022-08-19T03:59:01.033Z,100516.01
2022-08-19T04:01:35.533Z,100509.59
2022-08-19T04:04:08.103Z,100505.10
2022-08-19T04:06:42.484Z,100506.20
2022-08-19T04:09:15.095Z,100502.10
2022-08-19T04:11:49.202Z,100506.07
2022-08-19T04:14:25.158Z,100508.24
2022-08-19T04:16:57.313Z,100503.28
2022-08-19T04:19:31.130Z,100503.65
2022-08-19T04:22:03.395Z,100508.89
2022-08-19T04:24:37.718Z,100510.34
2022-08-19T04:27:09.806Z,100516.13
2022-08-19T04:29:42.479Z,100512.02
2022-08-19T04:32:16.879Z,100505.41
2022-08-19T04:35:02.654Z,100505.79
2022-08-19T04:37:41.898Z,100509.22
2022-08-19T04:40:32.754Z,100509.78
2022-08-19T04:43:04.606Z,100515.20
2022-08-19T04:45:43.455Z,100520.22
2022-08-19T04:48:26.143Z,100525.62
2022-08-19T04:51:14.410Z,100531.22
2022-08-19T04:53:46.893Z,100542.73
2022-08-19T04:56:21.841Z,100544.73
2022-08-19T04:58:54.676Z,100544.92
2022-08-19T05:01:30.681Z,100539.05
2022-08-19T05:04:05.265Z,100543.18
2022-08-19T05:06:38.467Z,100537.66
2022-08-19T05:09:10.301Z,100539.29
2022-08-19T05:11:42.512Z,100531.06
2022-08-19T05:14:14.883Z,100526.60
2022-08-19T05:16:46.719Z,100523.73
2022-08-19T05:19:37.371Z,100526.27
2022-08-19T05:22:26.945Z,100531.65
2022-08-19T05:25:12.092Z,100526.83
2022-08-19T05:27:44.874Z,100524.58
2022-08-19T05:30:17.458Z,100519.59
2022-08-19T05:32:49.477Z,100513.54
2022-08-19T05:35:21.418Z,100506.39
2022-08-19T05:37:58.912Z,100503.73
2022-08-19T05:40:31.474Z,100505.54
2022-08-19T05:43:03.362Z,100506.63
2022-08-19T05:45:39.802Z,100511.49
2022-08-19T05:48:12.434Z,100519.23
2022-08-19T05:50:46.378Z,100523.21
2022-08-19T05:53:19.772Z,100528.45
2022-08-19T05:55:51.829Z,100536.02
2022-08-19T05:58:25.077Z,100542.72
2022-08-19T06:01:05.316Z,100542.04
2022-08-19T06:03:38.368Z,100545.30
2022-08-19T06:06:11.922Z,100545.70
2022-08-19T06:08:46.415Z,100537.65
2022-08-19T06:11:22.292Z,100536.46
2022-08-19T06:14:00.202Z,100526.62
2022-08-19T06:16:36.158Z,100523.05
2022-08-19T06:19:11.482Z,100532.06
2022-08-19T06:21:44.867Z,100537.65
2022-08-19T06:24:20.059Z,100536.97
2022-08-19T06:26:56.727Z,100533.22
2022-08-19T06:29:33.111Z,100535.05
2022-08-19T06:32:06.067Z,100535.27
2022-08-19T06:34:38.244Z,100532.59
2022-08-19T06:37:10.629Z,100533.01
2022-08-19T06:39:45.296Z,100539.48
2022-08-19T06:42:19.537Z,100534.65
2022-08-19T06:44:53.876Z,100531.95
2022-08-19T06:47:28.713Z,100533.41
2022-08-19T06:50:04.057Z,100529.09
2022-08-19T06:52:38.567Z,100525.14
2022-08-19T06:55:13.228Z,100526.75
2022-08-19T06:57:47.359Z,100518.80
2022-08-19T07:00:19.688Z,100513.37
2022-08-19T07:02:57.260Z,100513.69
2022-08-19T07:05:31.342Z,100511.67
2022-08-19T07:08:06.565Z,100503.89
2022-08-19T07:10:38.704Z,100502.08
2022-08-19T07:13:15.218Z,100493.92
2022-08-19T07:15:48.215Z,100488.82
2022-08-19T07:18:22.590Z,100492.38
2022-08-19T07:21:04.060Z,100496.84
2022-08-19T07:26:16.887Z,100488.46
2022-08-19T07:28:52.850Z,100493.65
2022-08-19T07:31:28.077Z,100495.60
2022-08-19T07:34:03.521Z,100500.58
2022-08-19T07:36:36.886Z,100499.82
2022-08-19T07:39:12.275Z,100504.09
2022-08-19T07:41:45.376Z,100505.11
2022-08-19T07:44:18.766Z,100502.15
2022-08-19T07:46:53.585Z,100499.92
2022-08-19T07:49:26.692Z,100494.82
2022-08-19T07:52:03.167Z,100495.13
2022-08-19T07:54:38.205Z,100495.06
2022-08-19T07:57:10.292Z,100493.57
2022-08-19T07:59:42.251Z,100503.63
2022-08-19T08:02:14.084Z,100499.05
2022-08-19T08:05:03.570Z,100494.46
2022-08-19T08:07:53.292Z,100503.42
2022-08-19T08:10:25.299Z,100500.67
2022-08-19T08:13:10.224Z,100505.30
2022-08-19T08:15:43.781Z,100500.89
2022-08-19T08:18:15.788Z,100495.41
2022-08-19T08:20:47.651Z,100491.23
2022-08-19T08:23:26.166Z,100487.95
2022-08-19T08:26:00.166Z,100484.13
2022-08-19T08:28:32.055Z,100483.37
2022-08-19T08:31:09.516Z,100477.18
2022-08-19T08:33:43.011Z,100479.31
2022-08-19T08:36:15.877Z,100478.22
2022-08-19T08:38:48.184Z,100480.51
2022-08-19T08:41:30.533Z,100480.99
2022-08-19T08:44:05.179Z,100473.85
2022-08-19T08:46:43.996Z,100466.52
2022-08-19T08:49:27.446Z,100470.22
2022-08-19T08:52:04.593Z,100469.57
2022-08-19T08:54:41.178Z,100475.08
2022-08-19T08:57:34.875Z,100469.21
2022-08-19T09:00:20.742Z,100474.39
2022-08-19T09:02:52.803Z,100473.95
2022-08-19T09:05:29.159Z,100469.36
2022-08-19T09:08:19.313Z,100467.48
2022-08-19T09:10:55.696Z,100467.06
2022-08-19T09:13:37.959Z,100471.19
2022-08-19T09:16:15.078Z,100468.20
2022-08-19T09:18:53.902Z,100461.41
2022-08-19T09:21:33.170Z,100458.56
2022-08-19T09:24:07.179Z,100460.60
2022-08-19T09:26:48.416Z,100456.70
2022-08-19T09:29:27.352Z,100455.02
2022-08-19T09:31:59.247Z,100452.23
2022-08-19T09:34:31.735Z,100452.69
2022-08-19T09:37:09.988Z,100453.71
2022-08-19T09:39:43.839Z,100449.29
2022-08-19T09:42:30.002Z,100451.39
2022-08-19T09:45:05.087Z,100450.05
2022-08-19T09:47:42.580Z,100450.35
2022-08-19T09:50:16.813Z,100445.36
2022-08-19T09:52:55.098Z,100444.39
2022-08-19T09:55:31.927Z,100441.40
2022-08-19T09:58:05.985Z,100438.42
2022-08-19T10:00:41.041Z,100437.42
2022-08-19T10:03:13.651Z,100444.27
2022-08-19T10:05:55.215Z,100437.95
2022-08-19T10:08:31.320Z,100444.13
2022-08-19T10:11:28.692Z,100440.69
2022-08-19T10:13:58.059Z,100443.52
2022-08-19T10:16:30.397Z,100444.00
2022-08-19T10:19:05.918Z,100435.79
2022-08-19T10:21:38.203Z,100438.98
2022-08-19T10:24:12.650Z,100429.96
2022-08-19T10:26:48.510Z,100426.24
2022-08-19T10:29:31.937Z,100421.73
2022-08-19T10:32:09.732Z,100418.88
2022-08-19T10:34:48.919Z,100419.99
2022-08-19T10:37:23.953Z,100413.58
2022-08-19T10:40:02.967Z,100407.58
2022-08-19T10:42:34.942Z,100411.23
2022-08-19T10:45:10.643Z,100421.90
2022-08-19T10:47:42.514Z,100416.21
2022-08-19T10:50:32.569Z,100409.45
2022-08-19T10:53:10.569Z,100405.92
2022-08-19T10:56:00.185Z,100402.24
2022-08-19T10:58:32.430Z,100404.27
2022-08-19T11:01:04.637Z,100405.88
2022-08-19T11:03:36.679Z,100400.67
2022-08-19T11:06:10.836Z,100396.74
2022-08-19T11:08:48.811Z,100396.70
2022-08-19T11:11:21.065Z,100395.95
2022-08-19T11:13:54.126Z,100390.25
2022-08-19T11:16:31.227Z,100388.69
2022-08-19T11:19:04.887Z,100387.37
2022-08-19T11:21:41.054Z,100380.95
2022-08-19T11:24:17.715Z,100382.39
2022-08-19T11:26:57.914Z,100376.86
2022-08-19T11:29:30.239Z,100376.44
2022-08-19T11:32:05.698Z,100371.14
2022-08-19T11:34:38.075Z,100368.70
2022-08-19T11:37:10.400Z,100360.60
2022-08-19T11:39:42.321Z,100351.64
2022-08-19T11:42:34.681Z,100339.39
2022-08-19T11:45:12.739Z,100329.48
2022-08-19T11:47:45.135Z,100329.90
2022-08-19T11:50:17.291Z,100330.58
2022-08-19T11:52:51.118Z,100329.48
2022-08-19T11:55:23.480Z,100336.70
2022-08-19T11:57:55.630Z,100336.80
2022-08-19T12:00:27.893Z,100342.33
2022-08-19T12:03:00.566Z,100338.61
2022-08-19T12:05:32.572Z,100333.56
2022-08-19T12:08:07.511Z,100336.77
2022-08-19T12:10:39.744Z,100338.40
2022-08-19T12:13:12.242Z,100345.85
2022-08-19T12:15:45.988Z,100345.94
2022-08-19T12:18:19.258Z,100339.73
2022-08-19T12:20:53.280Z,100341.75
2022-08-19T12:23:25.526Z,100341.38
2022-08-19T12:26:00.237Z,100345.27
2022-08-19T12:28:32.679Z,100339.73
2022-08-19T12:31:05.177Z,100337.50
2022-08-19T12:33:37.522Z,100341.58
2022-08-19T12:36:12.831Z,100339.18
2022-08-19T12:38:46.295Z,100338.11
2022-08-19T12:41:19.713Z,100340.83
2022-08-19T12:43:52.451Z,100341.89
2022-08-19T12:46:26.174Z,100346.79
2022-08-19T12:49:00.589Z,100347.36
2022-08-19T12:51:37.170Z,100343.35
2022-08-19T12:54:09.209Z,100345.86
2022-08-19T12:56:43.568Z,100345.31
2022-08-19T12:59:17.711Z,100341.73
2022-08-19T13:01:49.799Z,100343.30
2022-08-19T13:04:23.926Z,100341.32
2022-08-19T13:06:55.794Z,100344.70
2022-08-19T13:09:28.197Z,100340.73
2022-08-19T13:12:03.946Z,100348.25
2022-08-19T13:14:36.681Z,100349.04
2022-08-19T13:17:12.849Z,100343.98
2022-08-19T13:19:44.714Z,100347.36
2022-08-19T13:22:16.647Z,100346.79
2022-08-19T13:24:54.375Z,100347.30
2022-08-19T13:27:26.448Z,100342.36
2022-08-19T13:30:16.190Z,100339.54
2022-08-19T13:33:05.726Z,100340.41
2022-08-19T13:35:40.858Z,100343.16
2022-08-19T13:38:13.943Z,100339.95
2022-08-19T13:40:47.518Z,100338.16
2022-08-19T13:43:23.035Z,100336.67
2022-08-19T13:45:57.877Z,100334.96
2022-08-19T13:48:32.714Z,100334.38
2022-08-19T13:51:07.101Z,100333.39
2022-08-19T13:53:39.778Z,100324.92
2022-08-19T13:56:22.984Z,100330.95
2022-08-19T13:58:59.415Z,100328.13
2022-08-19T14:01:32.946Z,100322.56
2022-08-19T14:04:06.881Z,100324.89
2022-08-19T14:06:39.124Z,100327.24
2022-08-19T14:09:10.985Z,100322.90
2022-08-19T14:11:42.827Z,100327.98
2022-08-19T14:14:16.542Z,100322.81
2022-08-19T14:16:49.753Z,100326.71
2022-08-19T14:19:22.641Z,100327.05
2022-08-19T14:21:58.912Z,100323.11
2022-08-19T14:24:33.112Z,100317.85
2022-08-19T14:27:05.380Z,100315.51
2022-08-19T14:29:38.015Z,100318.88
2022-08-19T14:32:13.043Z,100319.95
2022-08-19T14:34:48.764Z,100317.14
2022-08-19T14:37:20.695Z,100314.17
2022-08-19T14:39:54.266Z,100314.69
2022-08-19T14:42:26.316Z,100308.83
2022-08-19T14:45:01.722Z,100311.59
2022-08-19T14:47:33.650Z,100308.02
2022-08-19T14:50:07.546Z,100300.98
2022-08-19T14:52:45.241Z,100308.73
2022-08-19T14:55:20.123Z,100307.77
2022-08-19T14:57:55.893Z,100305.09
2022-08-19T15:00:30.707Z,100304.17
2022-08-19T15:03:02.748Z,100299.21
2022-08-19T15:05:34.663Z,100298.32
2022-08-19T15:08:13.451Z,100302.40
2022-08-19T15:10:46.847Z,100303.48
2022-08-19T15:13:18.964Z,100305.33
2022-08-19T15:15:52.741Z,100305.66
2022-08-19T15:18:25.494Z,100303.23
2022-08-19T15:20:58.015Z,100305.21
2022-08-19T15:23:30.045Z,100304.17
2022-08-19T15:26:02.117Z,100306.02
2022-08-19T15:28:34.096Z,100302.35
2022-08-19T15:31:06.810Z,100303.05
2022-08-19T15:33:45.196Z,100299.98
2022-08-19T15:36:21.136Z,100305.02
2022-08-19T15:38:54.126Z,100299.80
2022-08-19T15:41:28.101Z,100301.17
2022-08-19T15:44:02.377Z,100299.65
2022-08-19T15:46:35.810Z,100300.56
2022-08-19T15:49:09.258Z,100302.67
2022-08-19T15:51:43.240Z,100305.69
2022-08-19T15:54:21.571Z,100300.35
2022-08-19T15:57:12.086Z,100303.63
2022-08-19T16:00:02.851Z,100301.58
2022-08-19T16:02:54.803Z,100301.15
2022-08-19T16:05:45.855Z,100296.61
2022-08-19T16:08:18.480Z,100295.73
2022-08-19T16:10:50.479Z,100302.20
2022-08-19T16:13:22.583Z,100297.17
2022-08-19T16:15:57.245Z,100297.16
2022-08-19T16:18:29.807Z,100298.41
2022-08-19T16:21:01.919Z,100301.64
2022-08-19T16:23:34.403Z,100297.85
2022-08-19T16:26:06.854Z,100302.11
2022-08-19T16:28:39.863Z,100299.59
2022-08-19T16:31:13.604Z,100297.05
2022-08-19T16:33:45.617Z,100296.75
2022-08-19T16:36:17.869Z,100293.55
2022-08-19T16:38:50.190Z,100293.66
2022-08-19T16:41:23.298Z,100293.48
2022-08-19T16:43:55.580Z,100297.75
2022-08-19T16:46:28.302Z,100301.32
2022-08-19T16:49:00.660Z,100305.80
2022-08-19T16:51:33.904Z,100306.94
2022-08-19T16:54:07.752Z,100314.73
2022-08-19T16:56:39.989Z,100317.70
2022-08-19T16:59:13.905Z,100319.36
2022-08-19T17:01:45.960Z,100322.48
2022-08-19T17:04:18.116Z,100328.54
2022-08-19T17:06:52.368Z,100336.11
2022-08-19T17:09:25.858Z,100334.42
2022-08-19T17:11:58.918Z,100332.95
2022-08-19T17:14:31.649Z,100334.09
2022-08-19T17:17:03.704Z,100333.33
2022-08-19T17:19:36.471Z,100334.00
2022-08-19T17:22:11.453Z,100334.69
2022-08-19T17:24:43.479Z,100335.15
2022-08-19T17:27:15.492Z,100336.34
2022-08-19T17:29:47.469Z,100339.79
2022-08-19T17:32:25.445Z,100338.14
2022-08-19T17:34:58.029Z,100340.27
2022-08-19T17:37:30.031Z,100345.09
2022-08-19T17:40:02.728Z,100347.05
2022-08-19T17:42:35.352Z,100349.14
2022-08-19T17:45:11.279Z,100343.23
2022-08-19T17:47:43.612Z,100349.14
2022-08-19T17:50:18.802Z,100348.13
2022-08-19T17:52:52.495Z,100350.94
2022-08-19T17:55:25.831Z,100352.86
2022-08-19T17:57:58.213Z,100357.89
2022-08-19T18:00:30.454Z,100359.61
2022-08-19T18:03:07.646Z,100362.62
2022-08-19T18:05:46.513Z,100363.45
2022-08-19T18:08:18.677Z,100367.21
2022-08-19T18:10:50.900Z,100370.75
2022-08-19T18:13:25.520Z,100370.32
2022-08-19T18:15:58.718Z,100371.33
2022-08-19T18:18:32.732Z,100371.77
2022-08-19T18:21:04.759Z,100373.88
2022-08-19T18:23:43.852Z,100373.91
2022-08-19T18:26:17.732Z,100373.05
2022-08-19T18:28:51.828Z,100373.17
2022-08-19T18:31:24.523Z,100371.05
2022-08-19T18:33:56.702Z,100369.88
2022-08-19T18:36:52.624Z,100372.48
2022-08-19T18:39:39.423Z,100365.13
2022-08-19T18:42:40.425Z,100360.89
2022-08-19T18:45:30.878Z,100362.44
2022-08-19T18:48:26.504Z,100370.82
2022-08-19T18:51:01.940Z,100376.16
2022-08-19T18:53:35.764Z,100375.30
2022-08-19T18:56:09.095Z,100379.52
2022-08-19T18:58:44.624Z,100386.30
2022-08-19T19:01:19.058Z,100387.83
2022-08-19T19:03:54.217Z,100387.92
2022-08-19T19:06:35.856Z,100388.73
2022-08-19T19:09:09.876Z,100392.02
2022-08-19T19:11:55.962Z,100397.31
2022-08-19T19:14:48.231Z,100396.66
2022-08-19T19:17:28.547Z,100393.84
2022-08-19T19:20:00.938Z,100391.70
2022-08-19T19:22:33.688Z,100389.77
2022-08-19T19:25:11.894Z,100387.86
2022-08-19T19:27:43.969Z,100390.06
2022-08-19T19:30:16.118Z,100394.28
2022-08-19T19:32:48.635Z,100393.97
2022-08-19T19:35:20.605Z,100397.31
2022-08-19T19:37:52.893Z,100400.80
2022-08-19T19:40:28.022Z,100407.71
2022-08-19T19:43:04.888Z,100413.94
2022-08-19T19:45:37.995Z,100410.54
2022-08-19T19:48:10.012Z,100412.34
2022-08-19T19:50:44.625Z,100410.04
2022-08-19T19:53:20.207Z,100413.52
2022-08-19T19:55:54.868Z,100416.27
2022-08-19T19:58:31.310Z,100416.17
2022-08-19T20:01:09.540Z,100419.13
2022-08-19T20:03:42.960Z,100416.07
2022-08-19T20:06:19.539Z,100416.29
2022-08-19T20:09:10.642Z,100412.70
2022-08-19T20:11:48.332Z,100416.73
2022-08-19T20:14:28.128Z,100424.37
2022-08-19T20:17:01.769Z,100423.15
2022-08-19T20:19:37.408Z,100430.80
2022-08-19T20:22:10.574Z,100430.30
2022-08-19T20:24:44.873Z,100429.23
2022-08-19T20:27:17.176Z,100431.27
2022-08-19T20:29:50.093Z,100430.60
2022-08-19T20:32:24.270Z,100433.16
2022-08-19T20:34:58.966Z,100434.27
2022-08-19T20:37:30.841Z,100440.09
2022-08-19T20:40:06.444Z,100453.52
2022-08-19T20:42:40.497Z,100467.50
2022-08-19T20:45:33.074Z,100468.45
2022-08-19T20:48:08.734Z,100473.88
2022-08-19T20:50:41.101Z,100487.15
2022-08-19T20:53:16.232Z,100498.42
2022-08-19T20:55:50.388Z,100499.23
2022-08-19T20:58:23.634Z,100491.88
2022-08-19T21:01:01.499Z,100493.56
2022-08-19T21:03:36.294Z,100486.74
2022-08-19T21:06:16.288Z,100483.17
2022-08-19T21:08:52.167Z,100479.23
2022-08-19T21:11:26.791Z,100473.85
2022-08-19T21:13:58.659Z,100478.23
2022-08-19T21:16:32.732Z,100479.04
2022-08-19T21:19:08.252Z,100479.80
2022-08-19T21:21:40.140Z,100480.55
2022-08-19T21:24:12.044Z,100480.02
2022-08-19T21:26:49.442Z,100471.55
2022-08-19T21:29:23.425Z,100469.57
2022-08-19T21:31:55.445Z,100475.36
2022-08-19T21:34:27.728Z,100481.17
2022-08-19T21:37:02.392Z,100474.52
2022-08-19T21:39:34.566Z,100464.23
2022-08-19T21:42:07.630Z,100463.19
2022-08-19T21:44:40.805Z,100472.98
2022-08-19T21:47:18.028Z,100475.59
2022-08-19T21:49:49.900Z,100472.55
2022-08-19T21:52:25.971Z,100481.08
2022-08-19T21:54:59.316Z,100482.75
2022-08-19T21:57:31.169Z,100477.04
2022-08-19T22:00:03.109Z,100478.66
2022-08-19T22:02:37.711Z,100478.50
2022-08-19T22:05:10.462Z,100475.28
2022-08-19T22:07:42.918Z,100471.86
2022-08-19T22:10:14.835Z,100479.27
2022-08-19T22:12:51.766Z,100486.34
2022-08-19T22:15:27.534Z,100497.75
2022-08-19T22:18:01.644Z,100504.08
2022-08-19T22:20:36.164Z,100509.14
2022-08-19T22:23:09.490Z,100515.11
2022-08-19T22:25:44.480Z,100512.41
2022-08-19T22:28:27.769Z,100513.48
2022-08-19T22:31:00.197Z,100524.14
2022-08-19T22:33:37.452Z,100519.09
2022-08-19T22:36:10.126Z,100514.62
2022-08-19T22:38:42.061Z,100526.70
2022-08-19T22:41:16.546Z,100531.22
2022-08-19T22:43:48.940Z,100532.33
2022-08-19T22:46:21.240Z,100540.64
2022-08-19T22:49:01.164Z,100539.03
2022-08-19T22:51:51.439Z,100535.27
2022-08-19T22:54:23.365Z,100539.61
2022-08-19T22:56:55.164Z,100551.36
2022-08-19T22:59:27.149Z,100561.66
2022-08-19T23:01:59.210Z,100576.66
2022-08-19T23:04:31.247Z,100573.05
2022-08-19T23:07:03.728Z,100568.76
2022-08-19T23:09:35.887Z,100572.20
2022-08-19T23:12:12.841Z,100574.56
2022-08-19T23:14:47.274Z,100575.27
2022-08-19T23:17:20.442Z,100579.42
2022-08-19T23:19:53.448Z,100566.28
2022-08-19T23:22:25.796Z,100560.89
2022-08-19T23:25:02.674Z,100555.30
2022-08-19T23:27:52.607Z,100552.25
2022-08-19T23:30:27.473Z,100543.25
2022-08-19T23:33:01.604Z,100531.19
2022-08-19T23:35:41.763Z,100528.14
2022-08-19T23:38:15.885Z,100531.03
2022-08-19T23:40:49.995Z,100529.77
2022-08-19T23:43:29.732Z,100522.58
2022-08-19T23:46:03.994Z,100519.70
2022-08-19T23:48:43.131Z,100529.27
2022-08-19T23:51:17.583Z,100533.41
2022-08-19T23:53:49.506Z,100537.92
2022-08-19T23:56:22.514Z,100538.81
2022-08-19T23:58:55.409Z,100537.73
